createdAt,value
2022-08-23T00:03:39.047Z,2.60
2022-08-23T00:08:48.585Z,2.35
2022-08-23T00:13:51.386Z,2.47
2022-08-23T00:18:53.707Z,1.77
2022-08-23T00:23:57.284Z,2.38
2022-08-23T00:28:59.360Z,1.80
2022-08-23T00:34:01.440Z,1.48
2022-08-23T00:39:05.110Z,1.90
2022-08-23T00:44:32.619Z,1.50
2022-08-23T00:49:38.097Z,1.60
2022-08-23T00:54:44.174Z,1.52
2022-08-23T00:59:46.920Z,1.98
2022-08-23T01:04:54.320Z,1.48
2022-08-23T01:10:02.513Z,1.40
2022-08-23T01:15:10.439Z,1.98
2022-08-23T01:20:15.957Z,1.38
2022-08-23T01:25:22.557Z,2.17
2022-08-23T01:30:28.155Z,2.38
2022-08-23T01:35:37.807Z,1.60
2022-08-23T01:40:41.986Z,1.65
2022-08-23T01:45:44.415Z,1.60
2022-08-23T01:50:47.680Z,1.80
2022-08-23T01:55:51.211Z,1.70
2022-08-23T02:00:53.415Z,1.85
2022-08-23T02:05:55.545Z,2.13
2022-08-23T02:10:59.252Z,2.25
2022-08-23T02:16:01.337Z,5.93
2022-08-23T02:21:03.552Z,3.63
2022-08-23T02:26:07.266Z,3.22
2022-08-23T02:31:09.614Z,2.38
2022-08-23T02:36:13.828Z,3.70
2022-08-23T02:41:20.836Z,2.30
2022-08-23T02:46:23.757Z,4.72
2022-08-23T02:51:28.863Z,2.20
2022-08-23T02:56:34.973Z,2.60
2022-08-23T03:01:40.025Z,1.98
2022-08-23T03:06:42.943Z,3.00
2022-08-23T03:11:50.984Z,2.53
2022-08-23T03:16:58.322Z,2.50
2022-08-23T03:22:09.254Z,2.78
2022-08-23T03:27:13.635Z,2.55
2022-08-23T03:32:19.030Z,2.50
2022-08-23T03:37:21.171Z,3.03
2022-08-23T03:42:30.886Z,4.85
2022-08-23T03:47:33.420Z,3.47
2022-08-23T03:52:40.998Z,3.53
2022-08-23T03:57:45.266Z,3.88
2022-08-23T04:02:50.044Z,3.55
2022-08-23T04:07:55.546Z,3.38
2022-08-23T04:19:48.153Z,3.90
2022-08-23T04:25:33.736Z,6.68
2022-08-23T04:31:14.052Z,3.15
2022-08-23T04:36:23.450Z,3.50
2022-08-23T04:41:43.437Z,1.73
2022-08-23T04:46:48.855Z,3.45
2022-08-23T04:51:55.604Z,1.60
2022-08-23T04:57:01.658Z,3.15
2022-08-23T05:02:07.638Z,2.92
2022-08-23T05:07:12.178Z,2.28
2022-08-23T05:12:18.093Z,3.15
2022-08-23T05:17:28.065Z,2.80
2022-08-23T05:22:36.907Z,3.45
2022-08-23T05:27:39.975Z,4.43
2022-08-23T05:32:47.452Z,4.90
2022-08-23T05:37:56.140Z,3.95
2022-08-23T05:43:00.110Z,4.38
2022-08-23T05:48:06.446Z,3.45
2022-08-23T05:53:13.775Z,5.22
2022-08-23T05:58:20.131Z,3.83
2022-08-23T06:03:26.174Z,4.30
2022-08-23T06:08:32.221Z,4.00
2022-08-23T06:13:36.830Z,4.72
2022-08-23T06:18:42.327Z,7.47
2022-08-23T06:23:52.501Z,4.50
2022-08-23T06:28:59.809Z,4.28
2022-08-23T06:34:07.458Z,3.90
2022-08-23T06:39:12.877Z,5.07
2022-08-23T06:44:17.985Z,3.78
2022-08-23T06:49:25.609Z,4.00
2022-08-23T06:54:30.731Z,3.58
2022-08-23T06:59:38.237Z,3.30
2022-08-23T07:04:46.642Z,3.83
2022-08-23T07:09:50.710Z,3.00
2022-08-23T07:14:53.385Z,2.85
2022-08-23T07:19:59.672Z,3.00
2022-08-23T07:25:04.521Z,2.60
2022-08-23T07:30:08.481Z,2.95
2022-08-23T07:35:22.246Z,2.70
2022-08-23T07:40:27.660Z,1.92
2022-08-23T07:45:35.836Z,2.65
2022-08-23T07:50:54.541Z,2.17
2022-08-23T07:56:08.945Z,2.15
2022-08-23T08:01:15.854Z,2.17
2022-08-23T08:06:27.784Z,1.15
2022-08-23T08:11:36.906Z,1.27
2022-08-23T08:16:42.929Z,1.00
2022-08-23T08:21:48.568Z,0.80
2022-08-23T08:26:53.378Z,0.95
2022-08-23T08:31:59.812Z,1.25
2022-08-23T08:37:06.761Z,0.93
2022-08-23T08:42:31.690Z,0.98
2022-08-23T08:47:41.199Z,1.10
2022-08-23T08:52:53.664Z,2.15
2022-08-23T08:57:57.820Z,1.50
2022-08-23T09:03:06.664Z,2.28
2022-08-23T09:08:45.454Z,1.80
2022-08-23T09:14:20.420Z,1.95
2022-08-23T09:19:29.494Z,2.10
2022-08-23T09:24:46.941Z,2.10
2022-08-23T09:30:32.079Z,2.22
2022-08-23T09:41:23.574Z,3.92
2022-08-23T09:47:00.909Z,3.40
2022-08-23T10:04:50.942Z,3.65
2022-08-23T10:10:46.292Z,4.05
2022-08-23T10:23:02.708Z,3.17
2022-08-23T10:48:10.041Z,3.47
2022-08-23T10:54:04.353Z,2.15
2022-08-23T11:05:32.626Z,2.78
2022-08-23T11:11:29.972Z,2.50
2022-08-23T11:17:20.535Z,2.47
2022-08-23T11:29:25.258Z,2.20
2022-08-23T11:35:07.586Z,1.73
2022-08-23T11:41:07.962Z,1.90
2022-08-23T11:47:25.093Z,1.73
2022-08-23T11:59:10.550Z,2.58
2022-08-23T12:04:34.111Z,2.25
2022-08-23T12:09:58.568Z,2.60
2022-08-23T12:15:12.532Z,2.05
2022-08-23T12:20:32.558Z,2.08
2022-08-23T12:25:39.541Z,2.08
2022-08-23T12:31:40.228Z,2.63
2022-08-23T12:37:25.234Z,2.33
2022-08-23T13:00:36.259Z,3.05
2022-08-23T13:18:54.806Z,2.00
2022-08-23T13:24:00.819Z,1.75
2022-08-23T13:30:27.841Z,1.55
2022-08-23T13:36:30.384Z,1.50
2022-08-23T13:41:53.911Z,1.85
2022-08-23T13:46:59.097Z,1.50
2022-08-23T13:58:30.401Z,1.52
2022-08-23T14:04:05.036Z,2.22
2022-08-23T14:09:31.036Z,1.70
2022-08-23T14:15:14.583Z,2.38
2022-08-23T14:20:56.481Z,3.75
2022-08-23T14:32:08.435Z,2.97
2022-08-23T14:38:00.589Z,1.88
2022-08-23T14:42:43.247Z,2.28
2022-08-23T14:47:52.784Z,3.28
2022-08-23T14:52:59.537Z,2.03
2022-08-23T14:58:04.912Z,2.47
2022-08-23T15:03:12.448Z,1.80
2022-08-23T15:08:17.391Z,2.00
2022-08-23T15:13:32.435Z,2.35
2022-08-23T15:18:42.369Z,2.00
2022-08-23T15:24:42.429Z,2.08
2022-08-23T15:41:29.767Z,1.98
2022-08-23T15:46:34.829Z,9.13
2022-08-23T15:51:54.193Z,7.38
2022-08-23T15:56:56.966Z,2.28
2022-08-23T16:01:59.807Z,2.67
2022-08-23T16:07:09.025Z,2.85
2022-08-23T16:12:17.625Z,1.70
2022-08-23T16:17:21.937Z,1.90
2022-08-23T16:22:37.856Z,2.83
2022-08-23T16:27:42.265Z,3.22
2022-08-23T16:32:50.029Z,2.65
2022-08-23T16:38:00.735Z,2.20
2022-08-23T16:43:04.683Z,2.40
2022-08-23T16:48:12.940Z,2.33
2022-08-23T16:53:21.680Z,2.40
2022-08-23T16:58:51.452Z,4.25
2022-08-23T17:03:57.083Z,2.97
2022-08-23T17:09:00.822Z,2.70
2022-08-23T17:14:05.077Z,3.00
2022-08-23T17:19:08.578Z,3.20
2022-08-23T17:24:14.227Z,3.03
2022-08-23T17:29:20.313Z,2.78
2022-08-23T17:34:25.417Z,3.40
2022-08-23T17:39:31.592Z,3.30
2022-08-23T17:44:34.155Z,3.42
2022-08-23T17:49:39.354Z,3.08
2022-08-23T17:54:46.360Z,3.30
2022-08-23T17:59:53.445Z,3.95
2022-08-23T18:04:56.298Z,3.20
2022-08-23T18:10:01.282Z,3.05
2022-08-23T18:15:07.303Z,3.40
2022-08-23T18:20:20.101Z,3.50
2022-08-23T18:25:27.855Z,3.20
2022-08-23T18:30:38.933Z,3.10
2022-08-23T18:35:42.719Z,3.05
2022-08-23T18:41:00.989Z,3.25
2022-08-23T18:46:10.115Z,3.00
2022-08-23T18:51:18.179Z,3.38
2022-08-23T18:56:22.747Z,2.90
2022-08-23T19:01:32.239Z,2.92
2022-08-23T19:06:38.879Z,3.08
2022-08-23T19:11:49.778Z,3.05
2022-08-23T19:17:00.900Z,3.35
2022-08-23T19:22:15.598Z,3.88
2022-08-23T19:27:23.022Z,3.55
2022-08-23T19:32:29.114Z,3.40
2022-08-23T19:37:39.253Z,3.97
2022-08-23T19:42:45.607Z,4.10
2022-08-23T19:47:49.444Z,3.60
2022-08-23T19:53:00.097Z,3.47
2022-08-23T19:58:09.009Z,3.97
2022-08-23T20:03:15.605Z,3.80
2022-08-23T20:08:19.064Z,5.97
2022-08-23T20:13:46.280Z,4.72
2022-08-23T20:18:54.128Z,4.70
2022-08-23T20:24:10.000Z,4.38
2022-08-23T20:29:58.121Z,4.90
2022-08-23T20:35:48.048Z,5.32
2022-08-23T20:52:50.047Z,5.80
2022-08-23T20:57:55.208Z,5.90
2022-08-23T21:03:07.934Z,7.03
2022-08-23T21:08:13.735Z,7.30
2022-08-23T21:13:22.696Z,6.80
2022-08-23T21:18:34.170Z,6.65
2022-08-23T21:23:43.236Z,8.68
2022-08-23T21:28:48.888Z,6.90
2022-08-23T21:34:14.800Z,6.25
2022-08-23T21:39:39.021Z,6.28
2022-08-23T22:09:03.152Z,7.80
2022-08-23T22:14:30.438Z,8.38
2022-08-23T22:19:33.965Z,8.25
2022-08-23T22:24:37.389Z,8.90
2022-08-23T22:29:39.445Z,9.45
2022-08-23T22:34:41.712Z,8.40
2022-08-23T22:39:46.029Z,9.38
2022-08-23T22:44:48.272Z,9.25
2022-08-23T22:49:52.712Z,8.98
2022-08-23T22:54:56.432Z,8.57
2022-08-23T23:00:01.330Z,9.48
2022-08-23T23:05:05.786Z,9.15
2022-08-23T23:10:10.325Z,10.48
2022-08-23T23:15:12.766Z,9.05
2022-08-23T23:20:32.367Z,8.77
2022-08-23T23:25:35.949Z,9.90
2022-08-23T23:30:38.703Z,7.97
2022-08-23T23:35:41.995Z,9.25
2022-08-23T23:40:45.575Z,7.68
2022-08-23T23:45:47.726Z,7.30
2022-08-23T23:50:49.881Z,7.82
2022-08-23T23:56:00.696Z,6.30
